sensor_id;sensor_type;location;lat;lon;timestamp;pressure;altitude;pressure_sealevel;temperature;humidity
43878;BME280;29815;48.184;11.268;2023-02-26T14:22:17;95256.28;;;0.38;100.00
43878;BME280;29815;48.184;11.268;2023-02-26T14:24:54;95241.88;;;1.08;100.00
43878;BME280;29815;48.184;11.268;2023-02-26T14:27:35;95253.03;;;1.90;100.00
43878;BME280;29815;48.184;11.268;2023-02-26T14:30:18;95248.19;;;2.28;100.00
43878;BME280;29815;48.184;11.268;2023-02-26T14:33:07;95250.38;;;2.61;100.00
43878;BME280;29815;48.184;11.268;2023-02-26T14:35:41;95251.56;;;2.65;97.67
43878;BME280;29815;48.184;11.268;2023-02-26T14:38:20;95254.47;;;2.87;100.00
43878;BME280;29815;48.184;11.268;2023-02-26T14:40:55;95253.00;;;3.15;100.00
43878;BME280;29815;48.184;11.268;2023-02-26T14:43:35;95266.19;;;3.10;100.00
43878;BME280;29815;48.184;11.268;2023-02-26T14:46:08;95271.72;;;2.55;94.89
43878;BME280;29815;48.184;11.268;2023-02-26T14:48:39;95258.16;;;2.03;98.18
43878;BME280;29815;48.184;11.268;2023-02-26T14:51:26;95281.44;;;1.64;100.00
43878;BME280;29815;48.184;11.268;2023-02-26T14:54:41;95282.94;;;1.17;100.00
43878;BME280;29815;48.184;11.268;2023-02-26T14:57:26;95288.44;;;0.97;100.00
43878;BME280;29815;48.184;11.268;2023-02-26T15:00:18;95282.91;;;0.74;100.00
43878;BME280;29815;48.184;11.268;2023-02-26T15:03:24;95279.66;;;0.97;100.00
43878;BME280;29815;48.184;11.268;2023-02-26T15:06:24;95275.09;;;2.02;100.00
43878;BME280;29815;48.184;11.268;2023-02-26T15:09:13;95275.66;;;3.05;100.00
43878;BME280;29815;48.184;11.268;2023-02-26T15:12:12;95273.09;;;3.57;84.13
43878;BME280;29815;48.184;11.268;2023-02-26T15:15:12;95280.53;;;3.44;77.96
43878;BME280;29815;48.184;11.268;2023-02-26T15:18:06;95282.13;;;2.98;79.47
43878;BME280;29815;48.184;11.268;2023-02-26T15:20:53;95285.94;;;2.19;80.09
43878;BME280;29815;48.184;11.268;2023-02-26T15:23:38;95293.56;;;1.60;89.86
43878;BME280;29815;48.184;11.268;2023-02-26T15:26:18;95308.22;;;1.20;93.14
43878;BME280;29815;48.184;11.268;2023-02-26T15:28:52;95305.34;;;0.96;100.00
43878;BME280;29815;48.184;11.268;2023-02-26T15:31:30;95322.50;;;0.62;100.00
43878;BME280;29815;48.184;11.268;2023-02-26T15:34:03;95328.13;;;0.41;100.00
43878;BME280;29815;48.184;11.268;2023-02-26T15:36:32;95327.97;;;0.29;100.00
43878;BME280;29815;48.184;11.268;2023-02-26T15:39:06;95323.56;;;0.17;100.00
43878;BME280;29815;48.184;11.268;2023-02-26T15:41:38;95325.84;;;0.07;100.00
43878;BME280;29815;48.184;11.268;2023-02-26T15:44:12;95326.81;;;0.19;100.00
43878;BME280;29815;48.184;11.268;2023-02-26T15:46:52;95320.13;;;0.54;100.00
43878;BME280;29815;48.184;11.268;2023-02-26T15:49:28;95319.13;;;0.80;100.00
43878;BME280;29815;48.184;11.268;2023-02-26T15:52:01;95323.47;;;0.99;100.00
43878;BME280;29815;48.184;11.268;2023-02-26T15:54:37;95332.66;;;1.22;100.00
43878;BME280;29815;48.184;11.268;2023-02-26T15:57:13;95334.53;;;1.40;100.00
43878;BME280;29815;48.184;11.268;2023-02-26T15:59:46;95339.56;;;1.48;100.00
43878;BME280;29815;48.184;11.268;2023-02-26T16:02:20;95342.09;;;1.61;100.00
43878;BME280;29815;48.184;11.268;2023-02-26T16:04:51;95352.34;;;1.57;100.00
43878;BME280;29815;48.184;11.268;2023-02-26T16:07:21;95355.31;;;1.43;100.00
43878;BME280;29815;48.184;11.268;2023-02-26T16:09:53;95353.44;;;1.25;100.00
43878;BME280;29815;48.184;11.268;2023-02-26T16:12:32;95352.19;;;1.02;100.00
43878;BME280;29815;48.184;11.268;2023-02-26T16:15:10;95366.97;;;0.85;100.00
43878;BME280;29815;48.184;11.268;2023-02-26T16:17:43;95368.50;;;0.68;100.00
43878;BME280;29815;48.184;11.268;2023-02-26T16:20:18;95364.44;;;0.65;100.00
43878;BME280;29815;48.184;11.268;2023-02-26T16:22:52;95369.03;;;0.52;100.00
43878;BME280;29815;48.184;11.268;2023-02-26T16:25:29;95379.66;;;0.39;100.00
43878;BME280;29815;48.184;11.268;2023-02-26T16:28:05;95378.72;;;0.20;100.00
43878;BME280;29815;48.184;11.268;2023-02-26T16:30:37;95383.44;;;0.05;100.00
43878;BME280;29815;48.184;11.268;2023-02-26T16:33:12;95392.06;;;-0.07;100.00
43878;BME280;29815;48.184;11.268;2023-02-26T16:35:46;95387.41;;;-0.24;100.00
43878;BME280;29815;48.184;11.268;2023-02-26T22:44:31;95697.28;;;-2.44;100.00
43878;BME280;29815;48.184;11.268;2023-02-26T22:47:01;95696.47;;;-2.45;100.00
43878;BME280;29815;48.184;11.268;2023-02-26T22:49:31;95694.00;;;-2.46;100.00
43878;BME280;29815;48.184;11.268;2023-02-26T22:52:01;95700.31;;;-2.47;100.00
43878;BME280;29815;48.184;11.268;2023-02-26T22:54:32;95706.19;;;-2.45;100.00
43878;BME280;29815;48.184;11.268;2023-02-26T22:57:03;95706.41;;;-2.47;100.00
43878;BME280;29815;48.184;11.268;2023-02-26T22:59:34;95703.94;;;-2.48;100.00
43878;BME280;29815;48.184;11.268;2023-02-26T23:02:04;95705.97;;;-2.50;100.00
43878;BME280;29815;48.184;11.268;2023-02-26T23:04:33;95701.50;;;-2.50;100.00
43878;BME280;29815;48.184;11.268;2023-02-26T23:07:03;95708.59;;;-2.50;100.00
43878;BME280;29815;48.184;11.268;2023-02-26T23:09:33;95705.13;;;-2.51;100.00
43878;BME280;29815;48.184;11.268;2023-02-26T23:12:03;95713.03;;;-2.51;100.00
43878;BME280;29815;48.184;11.268;2023-02-26T23:14:35;95710.41;;;-2.51;100.00
43878;BME280;29815;48.184;11.268;2023-02-26T23:17:04;95710.41;;;-2.51;100.00
43878;BME280;29815;48.184;11.268;2023-02-26T23:19:36;95718.31;;;-2.51;100.00
43878;BME280;29815;48.184;11.268;2023-02-26T23:22:06;95714.88;;;-2.51;100.00
43878;BME280;29815;48.184;11.268;2023-02-26T23:24:35;95716.31;;;-2.49;100.00
43878;BME280;29815;48.184;11.268;2023-02-26T23:27:05;95713.88;;;-2.50;100.00
43878;BME280;29815;48.184;11.268;2023-02-26T23:29:36;95716.69;;;-2.52;100.00
43878;BME280;29815;48.184;11.268;2023-02-26T23:32:06;95716.50;;;-2.50;100.00
43878;BME280;29815;48.184;11.268;2023-02-26T23:34:35;95721.94;;;-2.52;100.00
43878;BME280;29815;48.184;11.268;2023-02-26T23:37:06;95725.59;;;-2.53;100.00
43878;BME280;29815;48.184;11.268;2023-02-26T23:39:35;95723.50;;;-2.57;100.00
43878;BME280;29815;48.184;11.268;2023-02-26T23:42:05;95725.94;;;-2.56;100.00
43878;BME280;29815;48.184;11.268;2023-02-26T23:44:36;95730.41;;;-2.56;100.00
43878;BME280;29815;48.184;11.268;2023-02-26T23:47:06;95726.13;;;-2.57;100.00
43878;BME280;29815;48.184;11.268;2023-02-26T23:49:35;95725.50;;;-2.59;100.00
43878;BME280;29815;48.184;11.268;2023-02-26T23:52:05;95728.94;;;-2.59;100.00
43878;BME280;29815;48.184;11.268;2023-02-26T23:54:34;95727.75;;;-2.56;100.00
43878;BME280;29815;48.184;11.268;2023-02-26T23:57:37;95728.75;;;-2.57;100.00
